Liz Vinik — WDJ7775 — position and weather

sailwx.info

Track history (hours):
 
Tides and Currents Weather Stations Pressure Air Temp Water Temp Dewpoint Dewpoint Depression Visibility Wind Speed Wind Dir Waves Ship Positions

Liz Vinik

Owner: Vinik Marine Services LLC, Keyport, NJ. More information available from US FCC via Universal Licensing System and Coast Guard Vessel Documentation Center.

Last reported at 2018-Aug-16 08:29 UTC. Time now 2018-Aug-16 08:44 UTC.
Position N 40°36' W 074°12'.

Length 32 m; draft 4.6 m.

Type: Tug. MMSI: 366920310.

Date/timePositionNaut miles runAvg speedWind from/ knotsBaromVisibWave heightAir tempDewpointWater temp
2018-Aug-16 08:29N 40°36' W 074°12'2 0.0
2018-Aug-14 15:10N 40°37' W 074°12'1 8.2
2018-Aug-14 15:00N 40°38' W 074°11'5 9.1
2018-Aug-14 14:30N 40°39' W 074°05'2 3.6
2018-Aug-14 14:00N 40°38' W 074°04'0 0.2
2018-Aug-14 13:30N 40°38' W 074°04'1 1.2
2018-Aug-14 13:00N 40°37' W 074°03'0 0.2
2018-Aug-14 12:30N 40°37' W 074°03'0 0.8
2018-Aug-14 12:00N 40°38' W 074°03'2 3.6
2018-Aug-14 11:30N 40°39' W 074°05'4 8.8
2018-Aug-14 11:00N 40°39' W 074°11'10 5.6
2018-Aug-14 09:13N 40°31' W 074°18'0 0.0
2018-Aug-14 08:44N 40°31' W 074°18'  
2018-Aug-10 19:36N 40°37' W 074°12'1 7.4
2018-Aug-10 19:25N 40°39' W 074°11'3 7.0
2018-Aug-10 19:00N 40°39' W 074°07'1 1.4
2018-Aug-10 18:30N 40°39' W 074°07'0 0.1
2018-Aug-10 18:00N 40°39' W 074°07'2 4.8
2018-Aug-10 17:29N 40°39' W 074°10'2 0.1
2018-Aug-09 05:42N 40°38' W 074°12'1 4.1
2018-Aug-09 05:30N 40°38' W 074°12'4 7.6
2018-Aug-09 05:00N 40°39' W 074°07'1 1.1
2018-Aug-09 04:30N 40°39' W 074°08'2 3.4
2018-Aug-09 04:00N 40°40' W 074°08'1 2.0
2018-Aug-09 03:16N 40°42' W 074°08'3 8.4
2018-Aug-09 02:58N 40°39' W 074°09'  
Track history (hours):
 
Tides and Currents Weather Stations Pressure Air Temp Water Temp Dewpoint Dewpoint Depression Visibility Wind Speed Wind Dir Waves Ship Positions

Liz Vinik

Owner: Vinik Marine Services LLC, Keyport, NJ. More information available from US FCC via Universal Licensing System and Coast Guard Vessel Documentation Center.

Last reported at 2018-Aug-16 08:29 UTC. Time now 2018-Aug-16 08:44 UTC.
Position N 40°36' W 074°12'.

Length 32 m; draft 4.6 m.

Type: Tug. MMSI: 366920310.

Date/timePositionNaut miles runAvg speedWind from/ knotsBaromVisibWave heightAir tempDewpointWater temp
2018-Aug-16 08:29N 40°36' W 074°12'2 0.0
2018-Aug-14 15:10N 40°37' W 074°12'1 8.2
2018-Aug-14 15:00N 40°38' W 074°11'5 9.1
2018-Aug-14 14:30N 40°39' W 074°05'2 3.6
2018-Aug-14 14:00N 40°38' W 074°04'0 0.2
2018-Aug-14 13:30N 40°38' W 074°04'1 1.2
2018-Aug-14 13:00N 40°37' W 074°03'0 0.2
2018-Aug-14 12:30N 40°37' W 074°03'0 0.8
2018-Aug-14 12:00N 40°38' W 074°03'2 3.6
2018-Aug-14 11:30N 40°39' W 074°05'4 8.8
2018-Aug-14 11:00N 40°39' W 074°11'10 5.6
2018-Aug-14 09:13N 40°31' W 074°18'0 0.0
2018-Aug-14 08:44N 40°31' W 074°18'  
2018-Aug-10 19:36N 40°37' W 074°12'1 7.4
2018-Aug-10 19:25N 40°39' W 074°11'3 7.0
2018-Aug-10 19:00N 40°39' W 074°07'1 1.4
2018-Aug-10 18:30N 40°39' W 074°07'0 0.1
2018-Aug-10 18:00N 40°39' W 074°07'2 4.8
2018-Aug-10 17:29N 40°39' W 074°10'2 0.1
2018-Aug-09 05:42N 40°38' W 074°12'1 4.1
2018-Aug-09 05:30N 40°38' W 074°12'4 7.6
2018-Aug-09 05:00N 40°39' W 074°07'1 1.1
2018-Aug-09 04:30N 40°39' W 074°08'2 3.4
2018-Aug-09 04:00N 40°40' W 074°08'1 2.0
2018-Aug-09 03:16N 40°42' W 074°08'3 8.4
2018-Aug-09 02:58N 40°39' W 074°09'  

Dump ship's entire track history